Time;durP1;ratioP1;P1;durP2;ratioP2;P2;SDS_P1;SDS_P2;PMS_P1;PMS_P2;Temp;Humidity;BMP_temperature;BMP_pressure;BME280_temperature;BME280_humidity;BME280_pressure;Samples;Min_cycle;Max_cycle;Signal;HPM_P1;HPM_P2
2021/12/08 00:01:55;;;;;;;;;;;;;;;;;;4776310;29;32285;-69
2021/12/08 00:04:21;;;;;;;;;;;;;;;;;;4776054;29;32327;-69
2021/12/08 00:06:48;;;;;;;;;;;;;;;;;;4776795;29;32285;-70
2021/12/08 00:14:49;;;;;;;;;;;;;;;;;;4776430;29;32285;-70
2021/12/08 00:17:15;;;;;;;;;;;;;;;;;;4776414;29;32490;-70
2021/12/08 00:19:41;;;;;;;;;;;;;;;;;;4776720;29;32214;-71
2021/12/08 00:22:09;;;;;;;;;;;;;;;;;;4775904;29;34508;-71
2021/12/08 00:24:35;;;;;;;;;;;;;;;;;;4776156;29;32202;-71
2021/12/08 00:27:01;;;;;;;;;;;;;;;;;;4775909;29;32430;-71
2021/12/08 00:29:28;;;;;;;;;;;;;;;;;;4776226;29;32457;-71
2021/12/08 00:31:54;;;;;;;;;;;;;;;;;;4775952;29;34725;-71
2021/12/08 00:34:20;;;;;;;;;;;;;;;;;;4776056;29;32370;-71
2021/12/08 00:36:50;;;;;;;;;;;;;;;;;;4776270;29;32328;-71
2021/12/08 00:39:18;;;;;;;;;;;;;;;;;;4775877;29;32379;-72
2021/12/08 00:41:44;;;;;;;;;;;;;;;;;;4775703;29;32420;-70
2021/12/08 00:44:10;;;;;;;;;;;;;;;;;;4776073;29;32420;-70
2021/12/08 00:46:37;;;;;;;;;;;;;;;;;;4775659;29;32636;-71
2021/12/08 00:49:04;;;;;;;;;;;;;;;;;;4775830;29;32434;-71
2021/12/08 00:51:31;;;;;;;;;;;;;;;;;;4775951;29;32407;-71
2021/12/08 00:53:57;;;;;;;;;;;;;;;;;;4775187;29;34876;-72
2021/12/08 00:56:25;;;;;;;;;;;;;;;;;;4775845;29;32381;-71
2021/12/08 00:58:51;;;;;;;;;;;;;;;;;;4775747;29;32374;-70
2021/12/08 01:01:18;;;;;;;;;;;;;;;;;;4775201;29;32455;-70
2021/12/08 01:03:45;;;;;;;;;;;;;;;;;;4775536;29;32482;-70
2021/12/08 01:06:13;;;;;;;;;;;;;;;;;;4775876;29;32395;-70
2021/12/08 01:08:40;;;;;;;;;;;;;;;;;;4775655;29;32320;-69
2021/12/08 01:11:08;;;;;;;;;;;;;;;;;;4775359;29;32811;-70
2021/12/08 01:13:36;;;;;;;;;;;;;;;;;;4775768;29;32317;-70
2021/12/08 01:16:03;;;;;;;;;;;;;;;;;;4775506;29;35580;-70
2021/12/08 01:18:30;;;;;;;;;;;;;;;;;;4775389;29;32306;-70
2021/12/08 01:20:58;;;;;;;;;;;;;;;;;;4775713;29;32315;-70
2021/12/08 01:23:25;;;;;;;;;;;;;;;;;;4775171;29;32868;-70
2021/12/08 01:25:51;;;;;;;;;;;;;;;;;;4787886;29;32360;-70
2021/12/08 01:28:20;;;;;;;;;;;;;;;;;;4788509;29;32399;-69
2021/12/08 01:30:49;;;;;;;;;;;;;;;;;;4793539;29;32301;-70
2021/12/08 01:33:18;;;;;;;;;;;;;;;;;;4792070;29;32454;-70
2021/12/08 01:35:44;;;;;;;;;;;;;;;;;;4775644;29;32398;-70
2021/12/08 01:38:10;;;;;;;;;;;;;;;;;;4775322;29;35516;-71
2021/12/08 01:40:36;;;;;;;;;;;;;;;;;;4775641;29;32592;-74
2021/12/08 01:43:04;;;;;;;;;;;;;;;;;;4774992;29;32420;-71
2021/12/08 01:48:18;;;;;;;;;;;;;;;;;;4761945;29;32598;-70
2021/12/08 01:50:48;;;;;;;;;;;;;;;;;;4773651;29;32454;-73
2021/12/08 01:53:14;;;;;;;;;;;;;;;;;;4775138;29;32708;-71
2021/12/08 01:55:44;;;;;;;;;;;;;;;;;;4775458;29;32505;-70
2021/12/08 01:58:10;;;;;;;;;;;;;;;;;;4775391;29;32422;-71
2021/12/08 02:00:44;;;;;;;;;;;;;;;;;;4774937;29;34812;-72
2021/12/08 02:03:10;;;;;;;;;;;;;;;;;;4775397;29;32459;-71
2021/12/08 02:05:38;;;;;;;;;;;;;;;;;;4774316;29;32491;-72
2021/12/08 02:08:06;;;;;;;;;;;;;;;;;;4775170;29;32452;-71
2021/12/08 02:10:32;;;;;;;;;;;;;;;;;;4772825;29;32277;-71
2021/12/08 02:12:58;;;;;;;;;;;;;;;;;;4774821;29;32653;-71
2021/12/08 02:15:24;;;;;;;;;;;;;;;;;;4774836;29;32781;-72
2021/12/08 02:17:53;;;;;;;;;;;;;;;;;;4775225;29;32468;-71
2021/12/08 02:20:21;;;;;;;;;;;;;;;;;;4774634;29;32347;-74
2021/12/08 02:22:48;;;;;;;;;;;;;;;;;;4774772;29;34510;-71
2021/12/08 02:25:22;;;;;;;;;;;;;;;;;;4774412;29;32369;-71
2021/12/08 02:27:49;;;;;;;;;;;;;;;;;;4774303;29;32568;-70
2021/12/08 02:30:33;;;;;;;;;;;;;;;;;;4774583;29;32341;-72
2021/12/08 02:47:30;;;;;;;;;;;;;;;;;;4769638;29;34684;-69
2021/12/08 02:49:59;;;;;;;;;;;;;;;;;;4772306;29;32321;-71
2021/12/08 02:52:25;;;;;;;;;;;;;;;;;;4773317;29;32453;-70
2021/12/08 02:54:53;;;;;;;;;;;;;;;;;;4774955;29;32235;-72
2021/12/08 02:57:25;;;;;;;;;;;;;;;;;;4774777;29;34802;-71
2021/12/08 02:59:51;;;;;;;;;;;;;;;;;;4774232;29;32384;-72
2021/12/08 03:02:17;;;;;;;;;;;;;;;;;;4773773;29;32308;-71
2021/12/08 03:04:45;;;;;;;;;;;;;;;;;;4772791;29;32444;-71
2021/12/08 03:07:11;;;;;;;;;;;;;;;;;;4774329;29;32352;-69
2021/12/08 03:09:37;;;;;;;;;;;;;;;;;;4773986;29;34348;-70
2021/12/08 03:12:06;;;;;;;;;;;;;;;;;;4773387;29;32829;-70
2021/12/08 03:14:32;;;;;;;;;;;;;;;;;;4771607;29;32330;-69
2021/12/08 03:17:00;;;;;;;;;;;;;;;;;;4774765;29;32419;-69
2021/12/08 03:19:26;;;;;;;;;;;;;;;;;;4776434;29;34660;-69
2021/12/08 03:21:55;;;;;;;;;;;;;;;;;;4776596;29;32501;-70
2021/12/08 03:27:06;;;;;;;;;;;;;;;;;;4775940;29;32573;-69
2021/12/08 03:32:07;;;;;;;;;;;;;;;;;;4773923;29;34249;-69
2021/12/08 03:34:37;;;;;;;;;;;;;;;;;;4772816;29;32530;-69
2021/12/08 03:37:04;;;;;;;;;;;;;;;;;;4773975;29;32592;-71
2021/12/08 03:39:31;;;;;;;;;;;;;;;;;;4776902;29;32506;-70
2021/12/08 03:41:57;;;;;;;;;;;;;;;;;;4775788;29;35838;-73
2021/12/08 03:44:23;;;;;;;;;;;;;;;;;;4776204;29;32545;-69
2021/12/08 03:46:54;;;;;;;;;;;;;;;;;;4775715;29;32311;-69
2021/12/08 03:49:21;;;;;;;;;;;;;;;;;;4776440;29;32362;-70
2021/12/08 03:51:47;;;;;;;;;;;;;;;;;;4776438;29;32320;-70
2021/12/08 03:54:13;;;;;;;;;;;;;;;;;;4776374;29;35671;-71
2021/12/08 03:56:40;;;;;;;;;;;;;;;;;;4776782;29;32337;-70
2021/12/08 03:59:07;;;;;;;;;;;;;;;;;;4775957;29;32375;-70
2021/12/08 04:01:33;;;;;;;;;;;;;;;;;;4776241;29;32859;-69
2021/12/08 04:04:06;;;;;;;;;;;;;;;;;;4775401;29;34245;-70
2021/12/08 04:06:40;;;;;;;;;;;;;;;;;;4775250;29;32476;-70
2021/12/08 04:09:16;;;;;;;;;;;;;;;;;;4775175;29;32416;-70
2021/12/08 04:11:43;;;;;;;;;;;;;;;;;;4774112;29;32580;-70
2021/12/08 04:14:12;;;;;;;;;;;;;;;;;;4775929;29;32159;-70
2021/12/08 04:16:40;;;;;;;;;;;;;;;;;;4773342;29;34699;-71
2021/12/08 04:19:09;;;;;;;;;;;;;;;;;;4775754;29;32420;-70
2021/12/08 04:21:36;;;;;;;;;;;;;;;;;;4775374;29;32340;-70
2021/12/08 04:24:04;;;;;;;;;;;;;;;;;;4775607;29;32683;-71
2021/12/08 04:26:32;;;;;;;;;;;;;;;;;;4775006;29;34669;-70
2021/12/08 04:28:59;;;;;;;;;;;;;;;;;;4774475;29;32332;-70
2021/12/08 04:31:27;;;;;;;;;;;;;;;;;;4775334;29;32298;-69
2021/12/08 04:34:00;;;;;;;;;;;;;;;;;;4775349;29;32459;-68
2021/12/08 04:36:32;;;;;;;;;;;;;;;;;;4774947;29;32465;-71
2021/12/08 04:39:02;;;;;;;;;;;;;;;;;;4775177;29;35234;-69
2021/12/08 04:41:36;;;;;;;;;;;;;;;;;;4775222;29;32491;-69
2021/12/08 05:00:29;;;;;;;;;;;;;;;;;;4769966;29;32337;-70
2021/12/08 05:09:12;;;;;;;6.95;6.35;;;;;;;;;;4167939;33;32405;-70
2021/12/08 05:11:43;;;;;;;7.63;7.03;;;;;;;;;;4886633;28;32512;-69
2021/12/08 05:14:15;;;;;;;10.07;6.25;;;;;;;;;;4890912;28;35592;-69
2021/12/08 05:16:46;;;;;;;8.52;7.68;;;;;;;;;;4890267;28;32606;-69
2021/12/08 05:19:18;;;;;;;7.40;6.88;;;;;;;;;;4881126;29;32447;-71
2021/12/08 05:21:51;;;;;;;7.63;6.93;;;;;;;;;;4888419;28;32453;-71
2021/12/08 05:24:24;;;;;;;8.63;7.93;;;;;;;;;;4894932;28;32449;-69
2021/12/08 05:26:54;;;;;;;8.63;7.47;;;;;;;;;;4882266;28;34261;-70
2021/12/08 05:29:25;;;;;;;8.25;7.55;;;;;;;;;;4880430;29;32187;-72
2021/12/08 05:31:55;;;;;;;8.00;7.33;;;;;;;;;;4880325;29;32499;-71
2021/12/08 05:34:22;;;;;;;8.30;7.60;;;;;;;;;;4879053;29;32734;-71
2021/12/08 05:36:49;;;;;;;7.70;7.15;;;;;;;;;;4880292;29;34534;-70
2021/12/08 05:39:22;;;;;;;7.85;7.25;;;;;;;;;;4880175;29;32453;-71
2021/12/08 05:41:56;;;;;;;8.05;7.35;;;;;;;;;;4880675;29;32461;-70
2021/12/08 05:44:24;;;;;;;7.95;7.32;;;;;;;;;;4880465;29;32376;-71
2021/12/08 05:46:55;;;;;;;8.02;7.28;;;;;;;;;;4880404;29;32374;-71
2021/12/08 05:49:22;;;;;;;8.07;7.47;;;;;;;;;;4880787;29;34117;-70
2021/12/08 05:51:52;;;;;;;8.05;7.55;;;;;;;;;;4880841;29;32509;-71
2021/12/08 05:54:24;;;;;;;8.43;7.82;;;;;;;;;;4880656;29;32926;-71
2021/12/08 05:56:54;;;;;;;8.68;7.97;;;;;;;;;;4880315;29;32522;-72
2021/12/08 05:59:21;;;;;;;8.88;8.15;;;;;;;;;;4880121;29;35143;-72
2021/12/08 06:01:54;;;;;;;8.57;7.95;;;;;;;;;;4880347;29;32500;-70
2021/12/08 06:04:23;;;;;;;9.15;8.45;;;;;;;;;;4880343;29;32390;-71
2021/12/08 06:06:50;;;;;;;8.40;7.80;;;;;;;;;;4879870;29;32437;-70
2021/12/08 06:09:22;;;;;;;8.48;7.72;;;;;;;;;;4880648;29;31877;-72
2021/12/08 06:11:50;;;;;;;8.35;7.75;;;;;;;;;;4880473;29;33957;-70
2021/12/08 06:14:19;;;;;;;9.30;8.30;;;;;;;;;;4880236;29;32372;-71
2021/12/08 06:16:48;;;;;;;9.05;8.18;;;;;;;;;;4880218;29;32527;-71
2021/12/08 06:19:16;;;;;;;8.88;8.20;;;;;;;;;;4874549;29;32352;-70
2021/12/08 06:21:44;;;;;;;9.32;8.52;;;;;;;;;;4868040;29;35137;-71
2021/12/08 06:24:13;;;;;;;8.98;8.20;;;;;;;;;;4867697;29;32394;-69
2021/12/08 06:26:42;;;;;;;8.68;8.05;;;;;;;;;;4867646;29;32758;-69
2021/12/08 06:29:11;;;;;;;10.02;8.48;;;;;;;;;;4867618;29;32407;-70
2021/12/08 06:31:40;;;;;;;9.30;8.60;;;;;;;;;;4866367;29;32416;-70
2021/12/08 06:34:08;;;;;;;10.00;9.18;;;;;;;;;;4866821;29;35158;-71
2021/12/08 06:36:39;;;;;;;10.10;9.10;;;;;;;;;;4866949;29;32518;-69
2021/12/08 06:39:07;;;;;;;;;;;;;;;;;;4867814;29;32405;-70
2021/12/08 06:41:41;;;;;;;9.63;8.90;;;;;;;;;;4867740;29;32492;-70
2021/12/08 06:44:13;;;;;;;9.07;8.35;;;;;;;;;;4867732;29;36216;-70
2021/12/08 06:46:40;;;;;;;;;;;;;;;;;;4867911;29;32424;-70
2021/12/08 06:49:11;;;;;;;10.20;8.48;;;;;;;;;;4866575;29;32511;-69
2021/12/08 06:51:42;;;;;;;9.82;9.02;;;;;;;;;;4867436;29;32406;-69
2021/12/08 06:54:16;;;;;;;9.65;8.85;;;;;;;;;;4867621;29;32313;-69
2021/12/08 06:56:50;;;;;;;9.32;8.55;;;;;;;;;;4865916;29;63214;-70
2021/12/08 06:59:26;;;;;;;8.55;7.93;;;;;;;;;;4866271;29;32465;-70
2021/12/08 07:02:05;;;;;;;9.73;8.85;;;;;;;;;;4866763;29;32387;-70
2021/12/08 07:04:53;;;;;;;8.95;8.27;;;;;;;;;;4866617;29;32405;-70
2021/12/08 07:07:24;;;;;;;9.10;8.40;;;;;;;;;;4866188;29;34534;-71
2021/12/08 07:09:56;;;;;;;8.70;8.10;;;;;;;;;;4866962;29;32558;-71
2021/12/08 07:12:27;;;;;;;8.88;8.25;;;;;;;;;;4867074;29;32545;-70
2021/12/08 07:15:08;;;;;;;8.85;8.05;;;;;;;;;;4866645;29;32321;-70
2021/12/08 07:17:37;;;;;;;9.30;8.60;;;;;;;;;;4866204;29;32513;-71
2021/12/08 07:20:17;;;;;;;9.05;8.45;;;;;;;;;;4866829;29;34917;-71
2021/12/08 07:22:47;;;;;;;9.00;8.30;;;;;;;;;;4866897;29;32533;-70
2021/12/08 07:25:17;;;;;;;8.80;8.20;;;;;;;;;;4866599;29;32399;-71
2021/12/08 07:27:44;;;;;;;9.25;8.55;;;;;;;;;;4866636;29;32310;-71
2021/12/08 07:30:19;;;;;;;8.80;8.10;;;;;;;;;;4866333;29;34273;-71
2021/12/08 07:32:47;;;;;;;8.80;8.20;;;;;;;;;;4866572;29;32205;-71
2021/12/08 07:35:18;;;;;;;8.57;7.85;;;;;;;;;;4867051;29;32587;-70
2021/12/08 07:37:46;;;;;;;8.80;8.18;;;;;;;;;;4867374;29;32347;-70
2021/12/08 07:40:16;;;;;;;9.43;8.73;;;;;;;;;;4867275;29;32326;-70
2021/12/08 07:42:52;;;;;;;9.50;8.80;;;;;;;;;;4866795;29;34995;-69
2021/12/08 07:45:25;;;;;;;8.65;7.95;;;;;;;;;;4867061;29;32529;-69
2021/12/08 07:47:54;;;;;;;9.45;8.68;;;;;;;;;;4866265;29;32398;-69
2021/12/08 07:50:27;;;;;;;9.35;8.63;;;;;;;;;;4866861;29;32312;-71
2021/12/08 07:52:56;;;;;;;9.00;8.25;;;;;;;;;;4866367;29;35374;-71
2021/12/08 07:55:27;;;;;;;9.15;8.43;;;;;;;;;;4866436;29;32272;-71
2021/12/08 07:57:55;;;;;;;8.38;7.75;;;;;;;;;;4867114;29;32287;-70
2021/12/08 08:00:29;;;;;;;9.20;8.50;;;;;;;;;;4866692;29;32335;-70
2021/12/08 08:02:56;;;;;;;8.80;8.20;;;;;;;;;;4866447;29;32473;-70
2021/12/08 08:05:28;;;;;;;8.65;7.97;;;;;;;;;;4866280;29;34299;-71
2021/12/08 08:07:56;;;;;;;;;;;;;;;;;;4866752;29;32386;-71
2021/12/08 08:10:24;;;;;;;8.40;7.70;;;;;;;;;;4866605;29;32307;-69
2021/12/08 08:12:57;;;;;;;7.93;7.28;;;;;;;;;;4866176;29;32397;-72
2021/12/08 08:15:29;;;;;;;8.38;7.78;;;;;;;;;;4866116;29;35291;-68
2021/12/08 08:17:57;;;;;;;8.73;8.02;;;;;;;;;;4866106;29;32477;-71
2021/12/08 08:20:29;;;;;;;7.78;7.18;;;;;;;;;;4866011;29;32783;-69
2021/12/08 08:22:56;;;;;;;7.97;7.38;;;;;;;;;;4866450;29;32297;-69
2021/12/08 08:25:27;;;;;;;8.90;8.10;;;;;;;;;;4865502;29;32660;-68
2021/12/08 08:27:54;;;;;;;8.00;7.50;;;;;;;;;;4847732;29;35421;-70
2021/12/08 08:30:29;;;;;;;8.63;7.88;;;;;;;;;;4854871;29;32334;-70
2021/12/08 08:32:58;;;;;;;7.95;7.35;;;;;;;;;;4866585;29;32307;-69
2021/12/08 08:35:31;;;;;;;8.32;7.72;;;;;;;;;;4864622;29;32397;-71
2021/12/08 08:38:00;;;;;;;8.07;7.47;;;;;;;;;;4780561;29;35082;-71
2021/12/08 08:40:33;;;;;;;7.60;7.10;;;;;;;;;;4854812;29;32244;-70
2021/12/08 08:43:01;;;;;;;7.38;6.88;;;;;;;;;;4854542;29;32397;-70
2021/12/08 08:45:34;;;;;;;7.63;7.13;;;;;;;;;;4853581;29;32506;-71
2021/12/08 08:48:04;;;;;;;6.85;6.35;;;;;;;;;;4854612;29;32481;-70
2021/12/08 08:50:37;;;;;;;6.82;6.32;;;;;;;;;;4854241;29;35338;-70
2021/12/08 08:53:04;;;;;;;6.85;6.25;;;;;;;;;;4854728;29;32444;-70
2021/12/08 08:55:37;;;;;;;7.18;6.68;;;;;;;;;;4856178;29;32384;-70
2021/12/08 08:58:08;;;;;;;8.23;7.43;;;;;;;;;;4855703;29;32667;-71
2021/12/08 09:00:43;;;;;;;6.90;6.40;;;;;;;;;;4854408;29;35049;-71
2021/12/08 09:03:16;;;;;;;7.50;6.90;;;;;;;;;;4854137;29;32683;-72
2021/12/08 09:05:49;;;;;;;6.95;6.47;;;;;;;;;;4854956;29;32542;-71
2021/12/08 09:08:22;;;;;;;6.90;6.40;;;;;;;;;;4854112;29;32523;-71
2021/12/08 09:10:53;;;;;;;7.25;6.75;;;;;;;;;;4854107;29;32946;-71
2021/12/08 09:13:24;;;;;;;6.60;6.20;;;;;;;;;;4854822;29;34971;-71
2021/12/08 09:15:59;;;;;;;7.60;7.10;;;;;;;;;;4853643;29;32618;-70
2021/12/08 09:18:38;;;;;;;7.63;7.13;;;;;;;;;;4856674;29;32274;-71
2021/12/08 09:21:16;;;;;;;7.55;6.95;;;;;;;;;;4851702;29;32761;-71
2021/12/08 09:23:48;;;;;;;6.95;6.45;;;;;;;;;;4849852;29;35538;-70
2021/12/08 09:26:19;;;;;;;7.15;6.65;;;;;;;;;;4864129;29;32681;-69
2021/12/08 09:28:51;;;;;;;7.22;6.72;;;;;;;;;;4863772;29;32548;-68
2021/12/08 09:31:24;;;;;;;7.25;6.75;;;;;;;;;;4848399;29;32439;-69
2021/12/08 09:33:55;;;;;;;7.28;6.78;;;;;;;;;;4845662;29;32325;-72
2021/12/08 09:36:28;;;;;;;7.50;6.88;;;;;;;;;;4845487;29;32608;-70
2021/12/08 09:39:00;;;;;;;7.15;6.65;;;;;;;;;;4861442;29;32311;-71
2021/12/08 09:41:36;;;;;;;6.40;5.80;;;;;;;;;;4860816;29;32132;-73
2021/12/08 09:44:09;;;;;;;6.90;6.43;;;;;;;;;;4863228;29;32600;-71
2021/12/08 09:46:40;;;;;;;7.18;6.55;;;;;;;;;;4864356;29;34467;-71
2021/12/08 09:49:09;;;;;;;7.75;7.10;;;;;;;;;;4859577;29;32405;-71
2021/12/08 09:51:37;;;;;;;7.47;6.75;;;;;;;;;;4856284;29;32238;-71
2021/12/08 09:54:05;;;;;;;6.95;6.45;;;;;;;;;;4855529;29;32514;-70
2021/12/08 09:56:33;;;;;;;6.78;6.28;;;;;;;;;;4867144;29;32525;-72
2021/12/08 09:59:02;;;;;;;7.15;6.65;;;;;;;;;;4864833;29;32306;-71
2021/12/08 10:01:29;;;;;;;7.25;6.68;;;;;;;;;;4853316;29;32507;-69
2021/12/08 10:03:59;;;;;;;6.80;6.30;;;;;;;;;;4862082;29;32590;-72
2021/12/08 10:06:27;;;;;;;7.35;6.75;;;;;;;;;;4858659;29;32465;-71
2021/12/08 10:08:57;;;;;;;6.80;6.40;;;;;;;;;;4863832;29;34684;-71
2021/12/08 10:11:26;;;;;;;6.55;6.07;;;;;;;;;;4864607;29;32464;-71
2021/12/08 10:13:53;;;;;;;7.07;6.57;;;;;;;;;;4866167;29;32389;-71
2021/12/08 10:16:20;;;;;;;6.85;6.35;;;;;;;;;;4865302;29;32564;-71
2021/12/08 10:18:47;;;;;;;6.43;5.93;;;;;;;;;;4857838;29;32270;-71
2021/12/08 10:21:16;;;;;;;6.32;5.93;;;;;;;;;;4864599;29;32459;-71
2021/12/08 10:23:45;;;;;;;6.72;6.22;;;;;;;;;;4850157;29;32479;-71
2021/12/08 10:26:15;;;;;;;6.90;6.40;;;;;;;;;;4867309;29;32539;-70
2021/12/08 10:28:44;;;;;;;6.78;6.35;;;;;;;;;;4867290;29;32412;-70
2021/12/08 10:31:15;;;;;;;7.35;6.85;;;;;;;;;;4862247;29;35304;-70
2021/12/08 10:36:36;;;;;;;6.82;6.35;;;;;;;;;;4866664;29;32286;-73
2021/12/08 10:39:07;;;;;;;6.95;6.40;;;;;;;;;;4866696;29;32206;-70
2021/12/08 10:41:48;;;;;;;6.57;6.07;;;;;;;;;;4866866;29;32510;-71
2021/12/08 10:44:20;;;;;;;6.47;6.07;;;;;;;;;;4866733;29;32535;-71
2021/12/08 10:46:50;;;;;;;6.35;5.95;;;;;;;;;;4866294;29;32508;-71
2021/12/08 10:49:27;;;;;;;6.18;5.78;;;;;;;;;;4866478;29;32484;-71
2021/12/08 10:54:43;;;;;;;6.82;6.32;;;;;;;;;;4867000;29;34614;-71
2021/12/08 10:57:23;;;;;;;6.15;5.57;;;;;;;;;;4849340;29;32541;-70
2021/12/08 11:00:09;;;;;;;6.40;5.90;;;;;;;;;;4866805;29;32325;-70
2021/12/08 11:02:49;;;;;;;7.15;6.55;;;;;;;;;;4866033;29;32345;-71
2021/12/08 11:05:47;;;;;;;5.95;5.55;;;;;;;;;;4865156;29;32575;-70
2021/12/08 11:08:24;;;;;;;6.55;6.05;;;;;;;;;;4864077;29;32761;-71
2021/12/08 11:10:53;;;;;;;6.32;5.93;;;;;;;;;;4866458;29;32391;-71
2021/12/08 11:13:22;;;;;;;6.68;6.18;;;;;;;;;;4866291;29;32482;-71
2021/12/08 11:16:00;;;;;;;6.13;5.72;;;;;;;;;;4866546;29;32599;-70
2021/12/08 11:18:30;;;;;;;6.47;6.03;;;;;;;;;;4866688;29;34864;-71
2021/12/08 11:21:01;;;;;;;6.32;5.93;;;;;;;;;;4865658;29;32620;-71
2021/12/08 11:23:46;;;;;;;6.57;6.17;;;;;;;;;;4866502;29;32384;-71
2021/12/08 11:26:21;;;;;;;6.80;6.30;;;;;;;;;;4866366;29;32258;-69
2021/12/08 11:28:59;;;;;;;6.88;6.28;;;;;;;;;;4865931;29;32566;-71
2021/12/08 11:31:31;;;;;;;6.13;5.72;;;;;;;;;;4862105;29;32640;-70
2021/12/08 11:34:02;;;;;;;;;;;;;;;;;;4849256;29;32419;-70
2021/12/08 11:36:33;;;;;;;6.38;5.97;;;;;;;;;;4865101;29;32302;-70
2021/12/08 11:39:09;;;;;;;7.07;6.57;;;;;;;;;;4865771;29;32372;-71
2021/12/08 11:41:38;;;;;;;7.60;5.93;;;;;;;;;;4855413;29;35599;-71
2021/12/08 11:44:13;;;;;;;6.50;6.03;;;;;;;;;;4866611;29;32360;-72
2021/12/08 11:46:44;;;;;;;6.40;6.00;;;;;;;;;;4842809;29;32430;-70
2021/12/08 11:49:11;;;;;;;5.95;5.45;;;;;;;;;;4851365;29;32816;-70
2021/12/08 11:51:59;;;;;;;6.10;5.70;;;;;;;;;;4854572;29;34819;-71
2021/12/08 11:54:35;;;;;;;7.45;6.95;;;;;;;;;;4847344;29;32629;-70
2021/12/08 11:57:12;;;;;;;6.93;6.32;;;;;;;;;;4847097;29;32536;-71
2021/12/08 11:59:57;;;;;;;6.32;5.70;;;;;;;;;;4857081;29;32395;-71
2021/12/08 12:02:27;;;;;;;6.15;5.75;;;;;;;;;;4847666;29;33064;-70
2021/12/08 12:04:55;;;;;;;6.18;5.68;;;;;;;;;;4862906;29;35000;-70
2021/12/08 12:07:22;;;;;;;6.53;6.03;;;;;;;;;;4865253;29;32383;-71
2021/12/08 12:09:51;;;;;;;7.15;6.60;;;;;;;;;;4861855;29;32659;-69
2021/12/08 12:12:18;;;;;;;7.40;6.70;;;;;;;;;;4849443;29;32384;-70
2021/12/08 12:14:45;;;;;;;6.65;6.15;;;;;;;;;;4856543;29;34049;-70
2021/12/08 12:17:12;;;;;;;6.55;6.05;;;;;;;;;;4852336;29;32290;-70
2021/12/08 12:19:51;;;;;;;7.13;6.63;;;;;;;;;;4857298;29;32670;-71
2021/12/08 12:22:36;;;;;;;6.53;6.13;;;;;;;;;;4850298;29;32897;-71
2021/12/08 12:25:32;;;;;;;7.15;6.65;;;;;;;;;;4851494;29;33474;-71
2021/12/08 12:29:13;;;;;;;6.43;5.93;;;;;;;;;;4853563;29;34196;-70
2021/12/08 12:31:48;;;;;;;6.32;5.93;;;;;;;;;;4792304;29;32594;-71
2021/12/08 12:34:25;;;;;;;6.63;6.03;;;;;;;;;;4853931;29;32425;-71
2021/12/08 12:36:52;;;;;;;6.47;5.97;;;;;;;;;;4858039;29;32640;-70
2021/12/08 12:39:22;;;;;;;6.78;6.22;;;;;;;;;;4855468;29;34224;-71
2021/12/08 12:42:01;;;;;;;6.70;6.28;;;;;;;;;;4846495;29;32685;-71
2021/12/08 12:44:30;;;;;;;7.40;6.80;;;;;;;;;;4856670;29;32464;-70
2021/12/08 12:47:23;;;;;;;6.80;6.20;;;;;;;;;;4859501;29;32582;-70
2021/12/08 12:50:20;;;;;;;6.35;5.95;;;;;;;;;;4844053;29;32357;-72
2021/12/08 12:52:51;;;;;;;6.95;6.45;;;;;;;;;;4852357;29;35453;-74
2021/12/08 12:55:21;;;;;;;6.97;6.57;;;;;;;;;;4865608;29;32316;-71
2021/12/08 12:58:18;;;;;;;7.32;6.82;;;;;;;;;;4853733;29;32473;-70
2021/12/08 13:01:03;;;;;;;6.30;5.85;;;;;;;;;;4861635;29;32784;-71
2021/12/08 13:03:55;;;;;;;6.90;6.40;;;;;;;;;;4851498;29;34938;-71
2021/12/08 13:06:45;;;;;;;7.68;6.47;;;;;;;;;;4848634;29;32410;-70
2021/12/08 13:09:43;;;;;;;7.15;6.65;;;;;;;;;;4845421;29;32874;-71
2021/12/08 13:12:13;;;;;;;6.90;6.40;;;;;;;;;;4848706;29;32785;-71
2021/12/08 13:14:43;;;;;;;6.07;5.68;;;;;;;;;;4850678;29;32458;-70
2021/12/08 13:17:23;;;;;;;6.50;6.05;;;;;;;;;;4852323;29;35455;-71
2021/12/08 13:19:53;;;;;;;6.32;5.93;;;;;;;;;;4850711;29;32503;-71
2021/12/08 13:22:52;;;;;;;7.10;6.43;;;;;;;;;;4834802;29;32481;-71
2021/12/08 13:25:32;;;;;;;6.60;6.20;;;;;;;;;;4845887;29;32470;-71
2021/12/08 13:28:12;;;;;;;6.53;6.03;;;;;;;;;;4846353;29;34071;-70
2021/12/08 13:30:47;;;;;;;6.03;5.60;;;;;;;;;;4853568;29;32441;-71
2021/12/08 13:33:27;;;;;;;5.47;5.07;;;;;;;;;;4866990;29;32762;-70
2021/12/08 13:35:54;;;;;;;5.95;5.55;;;;;;;;;;4868294;29;32705;-70
2021/12/08 13:38:22;;;;;;;6.28;5.78;;;;;;;;;;4866337;29;32472;-71
2021/12/08 13:40:54;;;;;;;6.80;6.30;;;;;;;;;;4867820;29;34891;-70
2021/12/08 13:43:39;;;;;;;6.43;6.00;;;;;;;;;;4864610;29;32667;-71
2021/12/08 13:46:11;;;;;;;5.95;5.55;;;;;;;;;;4849263;29;32517;-70
2021/12/08 13:49:13;;;;;;;5.97;5.57;;;;;;;;;;4867405;29;32365;-70
2021/12/08 13:51:40;;;;;;;6.53;6.03;;;;;;;;;;4862283;29;34505;-71
2021/12/08 13:54:28;;;;;;;5.75;5.35;;;;;;;;;;4867679;29;32251;-70
2021/12/08 13:56:57;;;;;;;6.05;5.55;;;;;;;;;;4867568;29;32625;-70
2021/12/08 13:59:55;;;;;;;6.95;6.35;;;;;;;;;;4867446;29;32471;-70
2021/12/08 14:02:25;;;;;;;6.55;6.10;;;;;;;;;;4873370;23;32215;-71
2021/12/08 14:05:08;;;;;;;7.35;6.65;;;;;;;;;;4847037;29;34548;-71
2021/12/08 14:07:40;;;;;;;6.20;5.70;;;;;;;;;;4821532;29;32319;-71
2021/12/08 14:10:09;;;;;;;6.50;6.00;;;;;;;;;;4842195;29;32593;-70
2021/12/08 14:12:51;;;;;;;6.88;6.28;;;;;;;;;;4843794;29;32460;-71
2021/12/08 14:15:22;;;;;;;6.65;6.13;;;;;;;;;;4844056;29;34911;-71
2021/12/08 14:17:49;;;;;;;7.17;6.57;;;;;;;;;;4845340;29;32615;-70
2021/12/08 14:20:35;;;;;;;6.53;6.03;;;;;;;;;;4845806;29;32456;-71
2021/12/08 14:23:03;;;;;;;7.13;6.53;;;;;;;;;;4847038;29;32440;-70
2021/12/08 14:25:38;;;;;;;6.72;6.20;;;;;;;;;;4830497;29;32469;-71
2021/12/08 14:28:31;;;;;;;7.30;6.80;;;;;;;;;;4846712;29;34217;-71
2021/12/08 14:30:58;;;;;;;7.03;6.53;;;;;;;;;;4842544;29;32333;-70
2021/12/08 14:33:26;;;;;;;7.57;7.03;;;;;;;;;;4845048;29;32514;-70
2021/12/08 14:36:00;;;;;;;7.47;6.88;;;;;;;;;;4846304;29;32416;-71
2021/12/08 14:38:27;;;;;;;8.15;7.55;;;;;;;;;;4839762;29;35870;-71
2021/12/08 14:40:54;;;;;;;8.40;7.72;;;;;;;;;;4845479;29;32525;-71
2021/12/08 14:43:27;;;;;;;8.50;7.82;;;;;;;;;;4840191;29;32443;-71
2021/12/08 14:45:54;;;;;;;9.65;8.85;;;;;;;;;;4844838;29;32488;-73
2021/12/08 14:48:20;;;;;;;11.38;8.90;;;;;;;;;;4844508;29;32307;-71
2021/12/08 14:50:47;;;;;;;11.10;10.07;;;;;;;;;;4846470;29;34755;-70
2021/12/08 14:53:15;;;;;;;10.57;9.55;;;;;;;;;;4833057;29;32633;-70
2021/12/08 14:55:42;;;;;;;10.10;9.20;;;;;;;;;;4846833;29;32113;-68
2021/12/08 14:58:12;;;;;;;11.10;10.20;;;;;;;;;;4841503;29;32483;-70
2021/12/08 15:00:41;;;;;;;11.98;10.93;;;;;;;;;;4844697;29;35459;-71
2021/12/08 15:03:14;;;;;;;11.48;10.30;;;;;;;;;;4844995;29;32666;-71
2021/12/08 15:05:46;;;;;;;12.20;10.88;;;;;;;;;;4844931;29;34168;-70
2021/12/08 15:08:16;;;;;;;13.23;11.50;;;;;;;;;;4840345;29;32450;-71
2021/12/08 15:10:45;;;;;;;13.75;12.10;;;;;;;;;;4843745;29;32454;-71
2021/12/08 15:13:15;;;;;;;11.80;10.60;;;;;;;;;;4845497;29;34815;-70
2021/12/08 15:15:44;;;;;;;12.55;11.23;;;;;;;;;;4847066;29;32349;-70
2021/12/08 15:18:18;;;;;;;13.10;11.27;;;;;;;;;;4845219;29;32474;-69
2021/12/08 15:20:47;;;;;;;13.82;12.10;;;;;;;;;;4843633;29;32471;-68
2021/12/08 15:23:27;;;;;;;13.80;12.40;;;;;;;;;;4841958;29;35683;-70
2021/12/08 15:26:03;;;;;;;13.73;12.32;;;;;;;;;;4841889;29;32737;-69
2021/12/08 15:28:33;;;;;;;13.77;12.27;;;;;;;;;;4844663;29;32385;-70
2021/12/08 15:31:01;;;;;;;12.45;11.25;;;;;;;;;;4838615;29;32432;-70
2021/12/08 15:33:29;;;;;;;14.43;12.88;;;;;;;;;;4843287;29;32511;-69
2021/12/08 15:36:07;;;;;;;13.38;11.95;;;;;;;;;;4838868;23;34204;-69
2021/12/08 15:38:35;;;;;;;13.55;12.10;;;;;;;;;;4824495;29;32533;-68
2021/12/08 15:41:08;;;;;;;13.10;11.65;;;;;;;;;;4827065;29;32474;-69
2021/12/08 15:43:35;;;;;;;13.43;12.07;;;;;;;;;;4821863;29;32516;-69
2021/12/08 15:46:02;;;;;;;13.05;11.85;;;;;;;;;;4826516;29;36534;-70
2021/12/08 15:48:30;;;;;;;14.02;11.90;;;;;;;;;;4828246;29;32687;-69
2021/12/08 15:51:01;;;;;;;13.30;11.55;;;;;;;;;;4823519;29;32440;-69
2021/12/08 15:53:29;;;;;;;;;;;;;;;;;;4818007;29;32414;-70
2021/12/08 15:56:01;;;;;;;12.55;11.25;;;;;;;;;;4816706;29;32514;-69
2021/12/08 15:58:40;;;;;;;12.70;11.45;;;;;;;;;;4821498;29;35075;-69
2021/12/08 16:01:11;;;;;;;13.40;12.10;;;;;;;;;;4819281;29;32471;-70
2021/12/08 16:03:42;;;;;;;11.65;10.70;;;;;;;;;;4811797;29;33489;-70
2021/12/08 16:06:19;;;;;;;12.88;11.68;;;;;;;;;;4822448;29;32424;-70
2021/12/08 16:08:48;;;;;;;11.90;10.82;;;;;;;;;;4823200;29;34295;-70
2021/12/08 16:11:34;;;;;;;11.63;10.52;;;;;;;;;;4819845;29;32463;-70
2021/12/08 16:14:29;;;;;;;11.82;10.70;;;;;;;;;;4826208;29;32393;-69
2021/12/08 16:16:59;;;;;;;14.50;11.10;;;;;;;;;;4819366;29;32473;-70
2021/12/08 16:19:36;;;;;;;12.45;11.38;;;;;;;;;;4823500;29;32406;-70
2021/12/08 16:22:05;;;;;;;13.90;11.25;;;;;;;;;;4822248;29;35321;-70
2021/12/08 16:24:32;;;;;;;11.90;10.80;;;;;;;;;;4816600;29;32375;-69
2021/12/08 16:27:02;;;;;;;11.55;10.65;;;;;;;;;;4823161;29;32373;-70
2021/12/08 16:29:32;;;;;;;13.70;12.40;;;;;;;;;;4825886;29;32498;-69
2021/12/08 16:32:01;;;;;;;11.40;10.48;;;;;;;;;;4821565;29;35968;-69
2021/12/08 16:34:28;;;;;;;15.88;12.43;;;;;;;;;;4814694;29;32809;-69
2021/12/08 16:36:56;;;;;;;12.05;10.52;;;;;;;;;;4820361;29;32454;-69